createdAt,value
2022-08-17T00:03:01.082Z,25.93
2022-08-17T00:12:46.313Z,25.89
2022-08-17T00:22:36.234Z,25.87
2022-08-17T00:27:24.180Z,25.8
2022-08-17T00:33:10.663Z,25.85
2022-08-17T00:37:09.640Z,25.76
2022-08-17T00:42:02.482Z,25.63
2022-08-17T00:46:55.109Z,25.63
2022-08-17T00:51:47.762Z,25.64
2022-08-17T00:56:40.478Z,25.61
2022-08-17T01:01:32.816Z,25.6
2022-08-17T01:06:25.501Z,25.51
2022-08-17T01:11:18.198Z,25.49
2022-08-17T01:16:10.878Z,25.54
2022-08-17T01:21:03.650Z,25.47
2022-08-17T01:25:56.293Z,25.49
2022-08-17T01:30:57.622Z,25.48
2022-08-17T01:35:41.810Z,25.47
2022-08-17T01:40:34.629Z,25.47
2022-08-17T01:45:27.124Z,25.41
2022-08-17T01:50:19.574Z,25.43
2022-08-17T01:55:12.363Z,25.44
2022-08-17T02:00:04.828Z,25.37
2022-08-17T02:05:02.780Z,25.38
2022-08-17T02:09:54.515Z,25.4
2022-08-17T02:14:47.159Z,25.33
2022-08-17T02:19:39.704Z,25.31
2022-08-17T02:24:59.111Z,25.36
2022-08-17T02:29:24.904Z,25.34
2022-08-17T02:34:17.326Z,25.31
2022-08-17T02:39:10.156Z,25.31
2022-08-17T02:44:02.627Z,25.28
2022-08-17T02:48:55.181Z,25.27
2022-08-17T02:53:47.854Z,25.27
2022-08-17T02:58:40.609Z,25.21
2022-08-17T03:03:32.926Z,25.21
2022-08-17T03:08:25.708Z,25.2
2022-08-17T03:13:18.024Z,25.15
2022-08-17T03:18:19.046Z,25.17
2022-08-17T03:23:03.363Z,25.14
2022-08-17T03:27:55.922Z,25.1
2022-08-17T03:32:48.598Z,25.11
2022-08-17T03:37:40.827Z,25.06
2022-08-17T03:42:33.487Z,25.08
2022-08-17T03:47:26.002Z,25.04
2022-08-17T03:52:18.300Z,25.01
2022-08-17T03:57:11.005Z,25
2022-08-17T04:02:03.997Z,25.01
2022-08-17T04:06:56.641Z,24.98
2022-08-17T04:11:49.324Z,24.94
2022-08-17T04:16:42.095Z,24.97
2022-08-17T04:21:34.333Z,24.39
2022-08-17T04:26:53.557Z,24.15
2022-08-17T04:31:18.283Z,23.84
2022-08-17T04:36:10.353Z,23.51
2022-08-17T04:41:02.783Z,23.65
2022-08-17T04:45:56.813Z,23.67
2022-08-17T04:50:48.104Z,23.36
2022-08-17T04:55:40.803Z,23.58
2022-08-17T05:00:33.378Z,23.43
2022-08-17T05:05:25.812Z,23.49
2022-08-17T05:15:10.763Z,23.33
2022-08-17T05:20:03.460Z,23.45
2022-08-17T05:24:55.946Z,23.22
2022-08-17T05:29:48.601Z,23.44
2022-08-17T05:34:40.989Z,23.28
2022-08-17T05:39:33.003Z,23.34
2022-08-17T05:44:25.658Z,22.72
2022-08-17T05:49:17.493Z,22.87
2022-08-17T05:54:10.077Z,23.1
2022-08-17T05:59:02.155Z,22.91
2022-08-17T06:08:47.980Z,23.24
2022-08-17T06:13:40.445Z,23.37
2022-08-17T06:18:30.794Z,22.05
2022-08-17T06:23:18.772Z,22.57
2022-08-17T06:28:13.688Z,22.1
2022-08-17T06:33:00.081Z,21.96
2022-08-17T06:37:53.091Z,22.25
2022-08-17T06:42:54.170Z,22.56
2022-08-17T06:47:39.820Z,22.32
2022-08-17T06:52:43.412Z,22.64
2022-08-17T06:57:25.372Z,22.87
2022-08-17T07:02:18.002Z,22.71
2022-08-17T07:07:10.319Z,22.99
2022-08-17T07:12:02.468Z,22.61
2022-08-17T07:16:55.207Z,22.82
2022-08-17T07:21:48.075Z,22.98
2022-08-17T07:26:40.682Z,23.11
2022-08-17T07:31:33.520Z,22.94
2022-08-17T07:36:29.751Z,23.1
2022-08-17T07:41:18.772Z,23.35
2022-08-17T07:46:11.483Z,23.38
2022-08-17T07:51:04.036Z,23.48
2022-08-17T07:55:56.604Z,23.52
2022-08-17T08:00:49.227Z,23.73
2022-08-17T08:05:46.725Z,23.81
2022-08-17T08:10:34.434Z,24.01
2022-08-17T08:15:26.947Z,24.13
2022-08-17T08:20:52.893Z,24.25
2022-08-17T08:25:12.276Z,24.36
2022-08-17T08:30:04.894Z,24.45
2022-08-17T08:35:02.424Z,24.51
2022-08-17T08:39:49.937Z,24.56
2022-08-17T08:44:59.345Z,24.61
2022-08-17T08:50:01.767Z,24.64
2022-08-17T08:54:27.505Z,24.69
2022-08-17T08:59:20.122Z,24.73
2022-08-17T09:04:23.621Z,24.77
2022-08-17T09:09:05.047Z,24.82
2022-08-17T09:13:57.856Z,24.86
2022-08-17T09:19:02.084Z,24.9
2022-08-17T09:23:43.135Z,24.93
2022-08-17T09:28:35.738Z,24.97
2022-08-17T09:33:28.309Z,25
2022-08-17T09:38:20.750Z,25.04
2022-08-17T09:43:13.452Z,25.06
2022-08-17T09:48:06.268Z,25.09
2022-08-17T09:52:59.226Z,25.14
2022-08-17T09:57:51.861Z,25.16
2022-08-17T10:02:44.162Z,25.21
2022-08-17T10:07:36.775Z,25.23
2022-08-17T10:12:29.992Z,25.28
2022-08-17T10:17:21.879Z,25.35
2022-08-17T10:22:32.802Z,25.39
2022-08-17T10:27:07.367Z,25.42
2022-08-17T10:32:00.106Z,25.46
2022-08-17T10:36:52.649Z,25.51
2022-08-17T10:41:45.512Z,25.56
2022-08-17T10:46:38.096Z,25.61
2022-08-17T10:51:30.768Z,25.67
2022-08-17T10:56:23.442Z,25.71
2022-08-17T11:01:16.396Z,25.74
2022-08-17T11:06:09.257Z,25.78
2022-08-17T11:11:01.948Z,25.82
2022-08-17T11:15:56.590Z,25.87
2022-08-17T11:20:46.910Z,25.89
2022-08-17T11:25:39.422Z,25.92
2022-08-17T11:35:19.620Z,26.01
2022-08-17T11:40:13.315Z,26.04
2022-08-17T11:45:06.063Z,26.08
2022-08-17T11:49:58.806Z,26.14
2022-08-17T11:54:51.398Z,26.15
2022-08-17T11:59:43.939Z,26.2
2022-08-17T12:04:36.575Z,26.24
2022-08-17T12:09:29.431Z,26.28
2022-08-17T12:14:29.480Z,26.29
2022-08-17T12:19:14.193Z,26.32
2022-08-17T12:24:06.833Z,26.36
2022-08-17T12:28:59.784Z,26.39
2022-08-17T12:33:52.276Z,26.44
2022-08-17T12:38:44.994Z,26.48
2022-08-17T12:43:37.682Z,26.52
2022-08-17T12:48:30.201Z,26.59
2022-08-17T12:53:22.919Z,26.63
2022-08-17T12:58:15.746Z,26.69
2022-08-17T13:03:08.461Z,26.73
2022-08-17T13:08:01.171Z,26.79
2022-08-17T13:12:53.886Z,26.84
2022-08-17T13:17:46.505Z,26.91
2022-08-17T13:22:39.132Z,26.91
2022-08-17T13:27:31.869Z,26.91
2022-08-17T13:32:25.108Z,26.9
2022-08-17T13:37:17.170Z,26.9
2022-08-17T13:42:13.502Z,26.89
2022-08-17T13:51:54.896Z,26.93
2022-08-17T13:56:47.751Z,26.96
2022-08-17T14:01:40.491Z,26.95
2022-08-17T14:06:51.655Z,26.97
2022-08-17T14:11:25.753Z,27
2022-08-17T14:16:18.552Z,26.99
2022-08-17T14:21:11.094Z,27
2022-08-17T14:26:03.730Z,27.03
2022-08-17T14:30:56.284Z,27.05
2022-08-17T14:35:49.057Z,27.08
2022-08-17T14:40:41.768Z,27.1
2022-08-17T14:45:39.959Z,27.12
2022-08-17T14:50:31.942Z,27.15
2022-08-17T14:55:24.430Z,27.13
2022-08-17T15:00:16.812Z,27.16
2022-08-17T15:05:09.679Z,27.15
2022-08-17T15:10:02.742Z,27.17
2022-08-17T15:14:54.837Z,27.16
2022-08-17T15:19:47.531Z,27.18
2022-08-17T15:24:40.115Z,27.19
2022-08-17T15:29:32.712Z,27.19
2022-08-17T15:34:25.537Z,27.19
2022-08-17T15:39:19.529Z,27.2
2022-08-17T15:44:10.523Z,27.22
2022-08-17T15:49:03.275Z,27.23
2022-08-17T15:53:55.657Z,27.21
2022-08-17T15:58:48.428Z,27.21
2022-08-17T16:03:46.613Z,27.22
2022-08-17T16:08:33.487Z,27.21
2022-08-17T16:13:26.043Z,27.23
2022-08-17T16:18:18.657Z,27.21
2022-08-17T16:23:11.447Z,27.22
2022-08-17T16:28:04.012Z,27.22
2022-08-17T16:32:56.821Z,27.26
2022-08-17T16:37:49.023Z,27.24
2022-08-17T16:42:41.568Z,27.24
2022-08-17T16:47:34.423Z,27.25
2022-08-17T16:52:32.228Z,27.25
2022-08-17T16:57:19.381Z,27.25
2022-08-17T17:02:12.266Z,27.26
2022-08-17T17:07:05.275Z,27.26
2022-08-17T17:11:58.057Z,27.27
2022-08-17T17:16:50.701Z,27.27
2022-08-17T17:21:43.612Z,27.28
2022-08-17T17:26:36.199Z,27.25
2022-08-17T17:31:28.868Z,27.25
2022-08-17T17:36:20.872Z,27.27
2022-08-17T17:41:13.638Z,27.27
2022-08-17T17:46:07.664Z,27.25
2022-08-17T17:50:58.722Z,27.24
2022-08-17T17:55:50.840Z,27.24
2022-08-17T18:00:43.292Z,27.25
2022-08-17T18:05:35.860Z,27.29
2022-08-17T18:10:29.240Z,27.3
2022-08-17T18:15:21.647Z,27.31
2022-08-17T18:20:13.834Z,27.31
2022-08-17T18:25:05.971Z,27.32
2022-08-17T18:29:58.061Z,27.32
2022-08-17T18:34:50.292Z,27.32
2022-08-17T18:39:43.032Z,27.34
2022-08-17T18:44:35.699Z,27.33
2022-08-17T18:49:28.165Z,27.34
2022-08-17T18:54:20.758Z,27.35
2022-08-17T18:59:13.358Z,27.36
2022-08-17T19:04:06.234Z,27.36
2022-08-17T19:08:58.870Z,27.35
2022-08-17T19:13:51.162Z,27.35
2022-08-17T19:18:43.794Z,27.35
2022-08-17T19:23:36.592Z,27.35
2022-08-17T19:28:28.974Z,27.33
2022-08-17T19:38:13.910Z,27.33
2022-08-17T19:43:06.538Z,27.31
2022-08-17T19:48:01.737Z,27.32
2022-08-17T19:52:50.961Z,27.3
2022-08-17T19:57:43.530Z,27.3
2022-08-17T20:02:36.035Z,27.31
2022-08-17T20:07:28.782Z,27.29
2022-08-17T20:12:20.993Z,27.28
2022-08-17T20:17:13.771Z,27.24
2022-08-17T20:22:06.396Z,27.22
2022-08-17T20:26:59.702Z,27.22
2022-08-17T20:31:51.433Z,27.2
2022-08-17T20:36:43.873Z,27.16
2022-08-17T20:41:37.597Z,27.2
2022-08-17T20:46:31.166Z,27.17
2022-08-17T20:51:23.565Z,27.15
2022-08-17T20:56:16.031Z,27.16
2022-08-17T21:01:08.799Z,27.14
2022-08-17T21:06:01.103Z,27.13
2022-08-17T21:10:53.636Z,27.1
2022-08-17T21:15:45.487Z,27.13
2022-08-17T21:20:37.744Z,27.08
2022-08-17T21:25:30.337Z,27.11
2022-08-17T21:30:22.966Z,27.05
2022-08-17T21:35:15.407Z,27.01
2022-08-17T21:40:07.853Z,26.98
2022-08-17T21:44:59.985Z,26.94
2022-08-17T21:49:52.427Z,26.95
2022-08-17T21:54:45.051Z,26.88
2022-08-17T21:59:37.982Z,26.86
2022-08-17T22:04:30.709Z,26.91
2022-08-17T22:09:23.506Z,26.89
2022-08-17T22:14:16.236Z,26.87
2022-08-17T22:19:08.870Z,26.85
2022-08-17T22:24:01.622Z,26.88
2022-08-17T22:28:54.050Z,26.81
2022-08-17T22:33:46.620Z,26.79
2022-08-17T22:38:39.196Z,26.75
2022-08-17T22:43:31.926Z,26.79
2022-08-17T22:48:26.741Z,26.77
2022-08-17T22:53:16.860Z,26.71
2022-08-17T22:58:09.530Z,26.72
2022-08-17T23:03:02.224Z,26.75
2022-08-17T23:07:54.535Z,26.7
2022-08-17T23:12:47.390Z,26.71
2022-08-17T23:17:39.771Z,26.67
2022-08-17T23:22:32.412Z,26.69
2022-08-17T23:27:25.009Z,26.69
2022-08-17T23:32:17.529Z,26.61
2022-08-17T23:37:10.081Z,26.6
2022-08-17T23:42:02.905Z,26.6
2022-08-17T23:46:55.491Z,26.54
2022-08-17T23:51:48.038Z,26.62
2022-08-17T23:56:40.421Z,26.58
